Time;durP1;ratioP1;P1;durP2;ratioP2;P2;SDS_P1;SDS_P2;PMS_P1;PMS_P2;Temp;Humidity;BMP_temperature;BMP_pressure;BME280_temperature;BME280_humidity;BME280_pressure;Samples;Min_cycle;Max_cycle;Signal;HPM_P1;HPM_P2
2022/03/07 00:02:20;;;;;;;;;;;1.50;99.90;;;;;;5128787;27;19962;-78
2022/03/07 00:04:46;;;;;;;;;;;1.40;99.90;;;;;;5131149;27;19931;-78
2022/03/07 00:07:12;;;;;;;;;;;1.50;99.90;;;;;;5148009;27;19934;-78
2022/03/07 00:09:37;;;;;;;;;;;1.40;99.90;;;;;;5125409;27;20020;-79
2022/03/07 00:12:03;;;;;;;;;;;1.40;99.90;;;;;;5129604;27;20291;-78
2022/03/07 00:14:29;;;;;;;;;;;1.40;99.90;;;;;;5120158;27;19968;-79
2022/03/07 00:16:54;;;;;;;;;;;1.40;99.90;;;;;;5105527;27;19930;-78
2022/03/07 00:19:20;;;;;;;;;;;1.40;99.90;;;;;;5116301;27;19923;-78
2022/03/07 00:21:45;;;;;;;;;;;1.50;99.90;;;;;;5099701;27;20006;-78
2022/03/07 00:24:11;;;;;;;;;;;1.40;99.90;;;;;;5103035;28;20272;-78
2022/03/07 00:26:37;;;;;;;;;;;1.40;99.90;;;;;;5096443;28;20004;-80
2022/03/07 00:29:02;;;;;;;;;;;1.30;99.90;;;;;;5130070;27;19977;-78
2022/03/07 00:31:28;;;;;;;;;;;1.30;99.90;;;;;;5147548;27;19924;-78
2022/03/07 00:33:53;;;;;;;;;;;1.20;99.90;;;;;;5147668;27;19924;-78
2022/03/07 00:36:19;;;;;;;;;;;1.20;99.90;;;;;;5105410;27;19930;-78
2022/03/07 00:38:45;;;;;;;;;;;1.10;99.90;;;;;;5097257;27;20010;-78
2022/03/07 00:41:11;;;;;;;;;;;1.20;99.90;;;;;;5112750;28;20419;-78
2022/03/07 00:43:38;;;;;;;;;;;1.20;99.90;;;;;;5106509;27;20019;-78
2022/03/07 00:46:03;;;;;;;;;;;1.10;99.90;;;;;;5118486;27;19923;-78
2022/03/07 00:48:29;;;;;;;;;;;1.10;99.90;;;;;;5111986;28;19977;-79
2022/03/07 00:50:55;;;;;;;;;;;1.10;99.90;;;;;;5095241;28;19931;-78
2022/03/07 00:53:22;;;;;;;;;;;1.10;99.90;;;;;;5114411;28;19978;-79
2022/03/07 00:55:47;;;;;;;;;;;1.00;99.90;;;;;;5130027;27;19967;-78
2022/03/07 00:58:14;;;;;;;;;;;0.90;99.90;;;;;;5130128;27;20287;-78
2022/03/07 01:00:40;;;;;;;;;;;0.90;99.90;;;;;;5112585;28;19924;-78
2022/03/07 01:03:06;;;;;;;;;;;0.90;99.90;;;;;;5113133;28;19987;-79
2022/03/07 01:05:32;;;;;;;;;;;0.90;99.90;;;;;;5129615;27;20422;-78
2022/03/07 01:07:57;;;;;;;;;;;0.90;99.90;;;;;;5095671;28;19963;-79
2022/03/07 01:10:23;;;;;;;;;;;0.90;99.90;;;;;;5129863;28;20269;-79
2022/03/07 01:12:49;;;;;;;;;;;0.90;99.90;;;;;;5112779;28;20269;-79
2022/03/07 01:15:15;;;;;;;;;;;0.80;99.90;;;;;;5112701;28;20367;-79
2022/03/07 01:17:41;;;;;;;;;;;0.90;99.90;;;;;;5112980;28;20021;-78
2022/03/07 01:20:07;;;;;;;;;;;0.80;99.90;;;;;;5112835;28;19927;-78
2022/03/07 01:22:33;;;;;;;;;;;0.90;99.90;;;;;;5112770;28;19931;-78
2022/03/07 01:24:59;;;;;;;;;;;0.90;99.90;;;;;;5112659;28;19927;-79
2022/03/07 01:27:24;;;;;;;;;;;0.90;99.90;;;;;;5129570;28;19924;-79
2022/03/07 01:29:50;;;;;;;;;;;0.90;99.90;;;;;;5114053;28;19931;-79
2022/03/07 01:32:15;;;;;;;;;;;1.00;99.90;;;;;;5099558;28;20047;-78
2022/03/07 01:34:41;;;;;;;;;;;0.90;99.90;;;;;;5112813;28;19927;-78
2022/03/07 01:37:06;;;;;;;;;;;0.90;99.90;;;;;;5112655;28;19996;-79
2022/03/07 01:39:32;;;;;;;;;;;0.90;99.90;;;;;;5130487;27;19934;-80
2022/03/07 01:41:58;;;;;;;;;;;0.90;99.90;;;;;;5119541;28;19924;-78
2022/03/07 01:44:25;;;;;;;;;;;0.80;99.90;;;;;;5112257;28;19982;-78
2022/03/07 01:46:51;;;;;;;;;;;1.00;99.90;;;;;;5112074;28;19924;-79
2022/03/07 01:49:17;;;;;;;;;;;0.80;99.90;;;;;;5128210;28;19939;-79
2022/03/07 01:51:44;;;;;;;;;;;0.90;99.90;;;;;;5111447;28;19977;-78
2022/03/07 01:54:11;;;;;;;;;;;0.80;99.90;;;;;;5111136;28;20383;-78
2022/03/07 01:56:36;;;;;;;;;;;0.80;99.90;;;;;;5095076;28;19924;-81
2022/03/07 01:59:05;;;;;;;;;;;0.80;99.90;;;;;;5121851;28;20014;-78
2022/03/07 02:01:31;;;;;;;;;;;0.80;99.90;;;;;;5095457;28;19939;-78
2022/03/07 02:03:57;;;;;;;;;;;0.70;99.90;;;;;;5112207;28;19931;-77
2022/03/07 02:06:23;;;;;;;;;;;0.70;99.90;;;;;;5129648;28;19924;-78
2022/03/07 02:08:49;;;;;;;;;;;0.60;99.90;;;;;;5099266;28;19931;-78
2022/03/07 02:11:15;;;;;;;;;;;0.60;99.90;;;;;;5112673;28;20016;-78
2022/03/07 02:13:41;;;;;;;;;;;0.70;99.90;;;;;;5111973;28;20384;-80
2022/03/07 02:16:06;;;;;;;;;;;0.70;99.90;;;;;;5112938;28;19934;-78
2022/03/07 02:18:33;;;;;;;;;;;0.70;99.90;;;;;;5116172;28;19927;-77
2022/03/07 02:21:03;;;;;;;;;;;0.70;99.90;;;;;;5116235;28;19948;-78
2022/03/07 02:23:28;;;;;;;;;;;0.60;99.90;;;;;;5132856;27;20334;-78
2022/03/07 02:25:54;;;;;;;;;;;0.60;99.90;;;;;;5102216;28;20383;-78
2022/03/07 02:28:20;;;;;;;;;;;0.50;99.90;;;;;;5098699;28;20050;-78
2022/03/07 02:30:46;;;;;;;;;;;0.60;99.90;;;;;;5115888;28;19923;-79
2022/03/07 02:33:12;;;;;;;;;;;0.50;99.90;;;;;;5115702;28;20447;-79
2022/03/07 02:35:38;;;;;;;;;;;0.50;99.90;;;;;;5115501;28;19980;-78
2022/03/07 02:38:03;;;;;;;;;;;0.70;99.90;;;;;;5081825;28;19923;-79
2022/03/07 02:40:29;;;;;;;;;;;0.60;99.90;;;;;;5098456;28;19932;-78
2022/03/07 02:42:54;;;;;;;;;;;0.50;99.90;;;;;;5131758;27;19924;-78
2022/03/07 02:45:20;;;;;;;;;;;0.50;99.90;;;;;;5132534;27;19923;-78
2022/03/07 02:47:46;;;;;;;;;;;0.50;99.90;;;;;;5115336;28;20387;-78
2022/03/07 02:50:11;;;;;;;;;;;0.50;99.90;;;;;;5132664;27;19927;-78
2022/03/07 02:52:37;;;;;;;;;;;0.50;99.90;;;;;;5114154;28;20023;-78
2022/03/07 02:55:02;;;;;;;;;;;0.30;99.90;;;;;;5132062;27;19923;-78
2022/03/07 02:57:28;;;;;;;;;;;0.30;99.90;;;;;;5098168;28;20014;-78
2022/03/07 02:59:54;;;;;;;;;;;0.30;99.90;;;;;;5098333;28;19930;-79
2022/03/07 03:02:21;;;;;;;;;;;0.30;99.90;;;;;;5081179;28;19946;-78
2022/03/07 03:04:46;;;;;;;;;;;0.30;99.90;;;;;;5132817;27;19998;-80
2022/03/07 03:07:12;;;;;;;;;;;0.30;99.90;;;;;;5099204;28;20010;-78
2022/03/07 03:09:38;;;;;;;;;;;0.30;99.90;;;;;;5131444;27;19928;-79
2022/03/07 03:12:04;;;;;;;;;;;0.40;99.90;;;;;;5114773;28;19973;-78
2022/03/07 03:14:30;;;;;;;;;;;0.30;99.90;;;;;;5097057;28;19924;-78
2022/03/07 03:16:55;;;;;;;;;;;0.20;99.90;;;;;;5133729;27;19971;-78
2022/03/07 03:19:22;;;;;;;;;;;0.10;99.90;;;;;;5117839;27;19924;-78
2022/03/07 03:21:47;;;;;;;;;;;0.10;99.90;;;;;;5114921;28;19924;-78
2022/03/07 03:24:13;;;;;;;;;;;0.10;99.90;;;;;;5114937;28;19982;-78
2022/03/07 03:26:39;;;;;;;;;;;0.10;99.90;;;;;;5114846;28;19988;-78
2022/03/07 03:29:04;;;;;;;;;;;0.20;99.90;;;;;;5114478;28;19931;-78
2022/03/07 03:31:30;;;;;;;;;;;0.20;99.90;;;;;;5080855;28;20335;-78
2022/03/07 03:33:55;;;;;;;;;;;0.20;99.90;;;;;;5080544;28;19931;-78
2022/03/07 03:36:21;;;;;;;;;;;0.20;99.90;;;;;;5114638;28;19931;-78
2022/03/07 03:38:47;;;;;;;;;;;0.10;99.90;;;;;;5080295;28;19935;-78
2022/03/07 03:41:12;;;;;;;;;;;0.10;99.90;;;;;;5096858;28;20367;-78
2022/03/07 03:43:38;;;;;;;;;;;0.10;99.90;;;;;;5097302;28;20522;-78
2022/03/07 03:46:03;;;;;;;;;;;0.20;99.90;;;;;;5095943;28;19931;-81
2022/03/07 03:48:29;;;;;;;;;;;0.10;99.90;;;;;;5114377;28;19924;-78
2022/03/07 03:50:54;;;;;;;;;;;0.10;99.90;;;;;;5131452;27;20015;-78
2022/03/07 03:53:20;;;;;;;;;;;0.10;99.90;;;;;;5147756;27;19924;-83
2022/03/07 03:55:46;;;;;;;;;;;0.10;99.90;;;;;;5097001;28;19977;-78
2022/03/07 03:58:11;;;;;;;;;;;0.10;99.90;;;;;;5130501;27;19928;-78
2022/03/07 04:00:37;;;;;;;;;;;0.00;99.90;;;;;;5079472;28;19930;-78
2022/03/07 04:03:02;;;;;;;;;;;0.00;99.90;;;;;;5114015;28;19988;-78
2022/03/07 04:05:28;;;;;;;;;;;0.00;99.90;;;;;;5096438;28;19923;-78
2022/03/07 04:07:54;;;;;;;;;;;0.10;99.90;;;;;;5113431;28;19924;-78
2022/03/07 04:10:19;;;;;;;;;;;0.00;99.90;;;;;;5130241;27;19927;-78
2022/03/07 04:12:45;;;;;;;;;;;-0.10;99.90;;;;;;5112989;28;20287;-78
2022/03/07 04:15:10;;;;;;;;;;;-0.10;99.90;;;;;;5114251;27;19924;-78
2022/03/07 04:17:37;;;;;;;;;;;-0.10;99.90;;;;;;5116217;27;20426;-78
2022/03/07 04:20:03;;;;;;;;;;;-0.10;99.90;;;;;;5099748;27;20363;-78
2022/03/07 04:22:29;;;;;;;;;;;-0.10;99.90;;;;;;5097479;28;20282;-78
2022/03/07 04:24:54;;;;;;;;;;;0.00;99.90;;;;;;5113240;28;19923;-78
2022/03/07 04:27:20;;;;;;;;;;;0.00;99.90;;;;;;5096633;28;20014;-78
2022/03/07 04:29:45;;;;;;;;;;;-0.10;99.90;;;;;;5113670;28;19924;-78
2022/03/07 04:32:11;;;;;;;;;;;0.00;99.90;;;;;;5096544;28;19930;-78
2022/03/07 04:34:36;;;;;;;;;;;0.00;99.90;;;;;;5112627;28;20081;-78
2022/03/07 04:37:02;;;;;;;;;;;0.00;99.90;;;;;;5095070;28;19974;-78
2022/03/07 04:39:28;;;;;;;;;;;0.00;99.90;;;;;;5146569;27;19924;-78
2022/03/07 04:41:53;;;;;;;;;;;-0.10;99.90;;;;;;5112696;28;19924;-78
2022/03/07 04:44:19;;;;;;;;;;;-0.10;99.90;;;;;;5113230;28;19928;-78
2022/03/07 04:46:44;;;;;;;;;;;-0.10;99.90;;;;;;5113181;28;19931;-77
2022/03/07 04:49:11;;;;;;;;;;;-0.10;99.90;;;;;;5130395;27;19924;-78
2022/03/07 04:51:37;;;;;;;;;;;-0.10;99.90;;;;;;5129571;27;19928;-77
2022/03/07 04:54:03;;;;;;;;;;;-0.10;99.90;;;;;;5111178;28;19935;-78
2022/03/07 04:56:28;;;;;;;;;;;-0.10;99.90;;;;;;5092314;28;20025;-78
2022/03/07 04:58:54;;;;;;;;;;;-0.10;99.90;;;;;;5112299;28;19968;-79
2022/03/07 05:01:20;;;;;;;;;;;-0.10;99.90;;;;;;5100144;28;20287;-78
2022/03/07 05:03:45;;;;;;;;;;;0.00;99.90;;;;;;5129806;28;19924;-78
2022/03/07 05:06:11;;;;;;;;;;;-0.10;99.90;;;;;;5130452;28;19993;-78
2022/03/07 05:08:38;;;;;;;;;;;0.00;99.90;;;;;;5147250;27;19923;-78
2022/03/07 05:11:04;;;;;;;;;;;-0.20;99.90;;;;;;5097657;28;20274;-78
2022/03/07 05:13:29;;;;;;;;;;;-0.10;99.90;;;;;;5124883;28;20018;-78
2022/03/07 05:15:55;;;;;;;;;;;-0.10;99.90;;;;;;5113315;28;19949;-78
2022/03/07 05:18:20;;;;;;;;;;;-0.20;99.90;;;;;;5112931;28;19959;-78
2022/03/07 05:20:46;;;;;;;;;;;-0.20;99.90;;;;;;5130368;28;19924;-78
2022/03/07 05:23:11;;;;;;;;;;;-0.20;99.90;;;;;;5147474;27;19928;-78
2022/03/07 05:25:37;;;;;;;;;;;-0.20;99.90;;;;;;5113130;28;19928;-83
2022/03/07 05:28:03;;;;;;;;;;;-0.20;99.90;;;;;;5096252;28;20363;-78
2022/03/07 05:30:28;;;;;;;;;;;-0.20;99.90;;;;;;5079494;28;19928;-79
2022/03/07 05:32:55;;;;;;;;;;;-0.20;99.90;;;;;;5124953;28;19924;-78
2022/03/07 05:35:21;;;;;;;;;;;-0.30;99.90;;;;;;5114024;28;19928;-78
2022/03/07 05:37:47;;;;;;;;;;;-0.20;99.90;;;;;;5113043;28;20291;-78
2022/03/07 05:40:13;;;;;;;;;;;-0.30;99.90;;;;;;5113087;28;19930;-78
2022/03/07 05:42:39;;;;;;;;;;;-0.30;99.90;;;;;;5112994;28;19923;-78
2022/03/07 05:45:06;;;;;;;;;;;-0.40;99.90;;;;;;5112614;28;19930;-78
2022/03/07 05:47:32;;;;;;;;;;;-0.30;99.90;;;;;;5127857;28;19927;-86
2022/03/07 05:49:57;;;;;;;;;;;-0.30;99.90;;;;;;5112968;28;19931;-77
2022/03/07 05:52:23;;;;;;;;;;;-0.30;99.90;;;;;;5132388;27;19924;-80
2022/03/07 05:54:49;;;;;;;;;;;-0.40;99.90;;;;;;5099007;28;19931;-78
2022/03/07 05:57:14;;;;;;;;;;;-0.40;99.90;;;;;;5099519;28;19961;-78
2022/03/07 05:59:40;;;;;;;;;;;-0.40;99.90;;;;;;5116756;28;19999;-78
2022/03/07 06:02:06;;;;;;;;;;;-0.40;99.90;;;;;;5116257;28;19927;-78
2022/03/07 06:04:31;;;;;;;;;;;-0.40;99.90;;;;;;5099623;28;19928;-78
2022/03/07 06:06:57;;;;;;;;;;;-0.40;99.90;;;;;;5099625;28;19923;-78
2022/03/07 06:09:22;;;;;;;;;;;-0.40;99.90;;;;;;5116667;28;20379;-78
2022/03/07 06:11:48;;;;;;;;;;;-0.50;99.90;;;;;;5116259;28;19972;-78
2022/03/07 06:14:14;;;;;;;;;;;-0.50;99.90;;;;;;5133228;27;20371;-77
2022/03/07 06:16:39;;;;;;;;;;;-0.50;99.90;;;;;;5099012;28;19993;-78
2022/03/07 06:19:05;;;;;;;;;;;-0.50;99.90;;;;;;5099418;28;19931;-78
2022/03/07 06:21:31;;;;;;;;;;;-0.50;99.90;;;;;;5116355;28;19924;-78
2022/03/07 06:23:56;;;;;;;;;;;-0.40;99.90;;;;;;5099422;28;19977;-78
2022/03/07 06:26:23;;;;;;;;;;;-0.40;99.90;;;;;;5098957;28;20434;-77
2022/03/07 06:28:49;;;;;;;;;;;-0.40;99.90;;;;;;5116081;28;19930;-78
2022/03/07 06:31:15;;;;;;;;;;;-0.40;99.90;;;;;;5082335;28;20295;-77
2022/03/07 06:33:40;;;;;;;;;;;-0.40;99.90;;;;;;5115576;28;19924;-78
2022/03/07 06:36:06;;;;;;;;;;;-0.40;99.90;;;;;;5119097;27;19930;-78
2022/03/07 06:38:32;;;;;;;;;;;-0.50;99.90;;;;;;5115804;28;19927;-77
2022/03/07 06:40:58;;;;;;;;;;;-0.50;99.90;;;;;;5115365;28;19927;-78
2022/03/07 06:43:23;;;;;;;;;;;-0.50;99.90;;;;;;5098806;28;19923;-78
2022/03/07 06:45:49;;;;;;;;;;;-0.50;99.90;;;;;;5131841;27;20403;-78
2022/03/07 06:48:15;;;;;;;;;;;-0.60;99.90;;;;;;5115825;28;19931;-79
2022/03/07 06:50:40;;;;;;;;;;;-0.50;99.90;;;;;;5115826;28;20046;-78
2022/03/07 06:53:06;;;;;;;;;;;-0.50;99.90;;;;;;5081171;28;20401;-78
2022/03/07 06:55:31;;;;;;;;;;;-0.40;99.90;;;;;;5149586;27;19935;-79
2022/03/07 06:57:57;;;;;;;;;;;-0.40;99.90;;;;;;5115093;28;19930;-78
2022/03/07 07:00:23;;;;;;;;;;;-0.30;99.90;;;;;;5080463;28;20007;-79
2022/03/07 07:02:48;;;;;;;;;;;-0.30;99.90;;;;;;5079900;28;19931;-78
2022/03/07 07:05:14;;;;;;;;;;;-0.20;99.90;;;;;;5097740;28;19924;-78
2022/03/07 07:07:42;;;;;;;;;;;-0.10;99.90;;;;;;5115001;28;19924;-78
2022/03/07 07:10:08;;;;;;;;;;;-0.10;99.90;;;;;;5110878;28;19924;-78
2022/03/07 07:12:34;;;;;;;;;;;-0.10;99.90;;;;;;5114870;28;20044;-78
2022/03/07 07:14:59;;;;;;;;;;;0.00;99.90;;;;;;5097991;28;19924;-78
2022/03/07 07:17:25;;;;;;;;;;;0.10;99.90;;;;;;5114568;28;20397;-79
2022/03/07 07:19:51;;;;;;;;;;;0.20;99.90;;;;;;5097752;28;19972;-79
2022/03/07 07:22:16;;;;;;;;;;;0.20;99.90;;;;;;5114659;28;19971;-79
2022/03/07 07:24:42;;;;;;;;;;;0.30;99.90;;;;;;5114343;28;19928;-80
2022/03/07 07:27:08;;;;;;;;;;;0.30;99.90;;;;;;5097539;28;20390;-81
2022/03/07 07:29:33;;;;;;;;;;;0.40;99.90;;;;;;5114359;28;19928;-81
2022/03/07 07:31:59;;;;;;;;;;;0.50;99.90;;;;;;5113754;28;19970;-79
2022/03/07 07:34:25;;;;;;;;;;;0.50;99.90;;;;;;5114227;28;19973;-85
2022/03/07 07:36:50;;;;;;;;;;;0.60;99.90;;;;;;5131453;27;19923;-82
2022/03/07 07:39:16;;;;;;;;;;;0.70;99.90;;;;;;5115171;27;19963;-81
2022/03/07 07:41:42;;;;;;;;;;;0.80;99.90;;;;;;5131251;27;19934;-78
2022/03/07 07:44:07;;;;;;;;;;;0.90;99.90;;;;;;5113559;28;19924;-77
2022/03/07 07:46:33;;;;;;;;;;;1.00;99.90;;;;;;5102575;28;19928;-80
2022/03/07 07:48:59;;;;;;;;;;;1.10;99.90;;;;;;5106506;28;20042;-77
2022/03/07 07:51:24;;;;;;;;;;;1.20;99.90;;;;;;5113370;28;19923;-78
2022/03/07 07:53:50;;;;;;;;;;;1.30;99.90;;;;;;5095471;28;20299;-78
2022/03/07 07:56:15;;;;;;;;;;;1.40;99.90;;;;;;5114398;28;19924;-80
2022/03/07 07:58:41;;;;;;;;;;;1.50;99.90;;;;;;5097117;28;19924;-79
2022/03/07 08:01:07;;;;;;;;;;;1.60;99.90;;;;;;5096680;28;19932;-78
2022/03/07 08:03:32;;;;;;;;;;;1.70;99.90;;;;;;5113796;28;19924;-81
2022/03/07 08:05:58;;;;;;;;;;;1.90;99.90;;;;;;5113853;28;19928;-84
2022/03/07 08:08:24;;;;;;;;;;;2.00;99.90;;;;;;5096765;28;19924;-82
2022/03/07 08:10:49;;;;;;;;;;;2.10;99.90;;;;;;5113126;28;20435;-81
2022/03/07 08:13:15;;;;;;;;;;;2.20;99.90;;;;;;5130662;27;19930;-81
2022/03/07 08:15:41;;;;;;;;;;;2.30;99.90;;;;;;5113212;28;19924;-82
2022/03/07 08:18:07;;;;;;;;;;;2.50;99.90;;;;;;5079138;28;19957;-81
2022/03/07 08:20:33;;;;;;;;;;;2.50;99.90;;;;;;5096553;28;19935;-81
2022/03/07 08:22:58;;;;;;;;;;;2.60;99.90;;;;;;5096287;28;19924;-78
2022/03/07 08:25:24;;;;;;;;;;;2.70;99.90;;;;;;5096091;28;19930;-78
2022/03/07 08:27:50;;;;;;;;;;;2.80;99.90;;;;;;5110596;28;19970;-84
2022/03/07 08:30:17;;;;;;;;;;;2.90;99.90;;;;;;5112759;28;19923;-80
2022/03/07 08:32:42;;;;;;;;;;;3.00;99.90;;;;;;5094877;28;20376;-83
2022/03/07 08:35:10;;;;;;;;;;;3.10;99.90;;;;;;5095124;28;19931;-77
2022/03/07 08:37:37;;;;;;;;;;;3.10;99.90;;;;;;5110550;28;19932;-80
2022/03/07 08:40:03;;;;;;;;;;;3.10;99.90;;;;;;5111088;28;19928;-80
2022/03/07 08:42:29;;;;;;;;;;;3.20;99.90;;;;;;5111839;28;19928;-80
2022/03/07 08:44:54;;;;;;;;;;;3.30;99.90;;;;;;5111630;28;19923;-79
2022/03/07 08:47:20;;;;;;;;;;;3.40;99.90;;;;;;5094498;28;20290;-79
2022/03/07 08:49:46;;;;;;;;;;;3.40;99.90;;;;;;5095795;28;19924;-79
2022/03/07 08:52:15;;;;;;;;;;;3.50;99.90;;;;;;5118651;27;19932;-79
2022/03/07 08:54:44;;;;;;;;;;;3.60;99.90;;;;;;5112535;28;19932;-82
2022/03/07 08:57:10;;;;;;;;;;;3.70;99.90;;;;;;5078708;28;19998;-79
2022/03/07 08:59:36;;;;;;;;;;;3.80;99.90;;;;;;5112749;28;19924;-79
2022/03/07 09:02:03;;;;;;;;;;;3.90;99.90;;;;;;5112838;28;20367;-80
2022/03/07 09:04:29;;;;;;;;;;;3.90;99.90;;;;;;5112926;28;19970;-80
2022/03/07 09:06:54;;;;;;;;;;;4.10;99.90;;;;;;5129347;27;19966;-83
2022/03/07 09:09:20;;;;;;;;;;;4.10;99.90;;;;;;5130009;27;19924;-80
2022/03/07 09:11:46;;;;;;;;;;;4.20;99.90;;;;;;5130175;27;19924;-80
2022/03/07 09:14:11;;;;;;;;;;;4.30;99.90;;;;;;5095635;28;20015;-80
2022/03/07 09:16:37;;;;;;;;;;;4.40;99.90;;;;;;5146811;27;19923;-78
2022/03/07 09:19:02;;;;;;;;;;;4.40;99.90;;;;;;5112405;28;20006;-79
2022/03/07 09:21:28;;;;;;;;;;;4.50;99.90;;;;;;5113036;28;19923;-79
2022/03/07 09:23:54;;;;;;;;;;;4.60;99.90;;;;;;5112426;28;20347;-79
2022/03/07 09:26:19;;;;;;;;;;;4.70;99.90;;;;;;5132319;27;19924;-81
2022/03/07 09:28:45;;;;;;;;;;;4.70;99.90;;;;;;5116899;28;20280;-80
2022/03/07 09:31:11;;;;;;;;;;;4.80;99.90;;;;;;5099179;28;19923;-80
2022/03/07 09:33:36;;;;;;;;;;;4.80;99.90;;;;;;5099774;28;19924;-80
2022/03/07 09:36:03;;;;;;;;;;;4.90;99.90;;;;;;5082924;28;19949;-81
2022/03/07 09:38:28;;;;;;;;;;;4.90;99.90;;;;;;5133838;27;19924;-81
2022/03/07 09:40:54;;;;;;;;;;;4.90;99.90;;;;;;5116844;28;20368;-81
2022/03/07 09:43:21;;;;;;;;;;;4.90;99.90;;;;;;5116645;28;19924;-84
2022/03/07 09:45:47;;;;;;;;;;;5.00;99.90;;;;;;5133259;27;19930;-80
2022/03/07 09:48:12;;;;;;;;;;;5.10;99.90;;;;;;5133327;27;20290;-80
2022/03/07 09:50:39;;;;;;;;;;;5.10;99.90;;;;;;5150585;27;19927;-78
2022/03/07 09:53:05;;;;;;;;;;;5.20;99.90;;;;;;5131717;27;19924;-78
2022/03/07 09:55:30;;;;;;;;;;;5.20;99.90;;;;;;5149481;27;19930;-80
2022/03/07 09:57:56;;;;;;;;;;;5.20;99.90;;;;;;5097903;28;19967;-79
2022/03/07 10:00:21;;;;;;;;;;;5.30;99.90;;;;;;5097651;28;19927;-78
2022/03/07 10:02:54;;;;;;;;;;;5.40;99.90;;;;;;5098819;28;20017;-80
2022/03/07 10:05:19;;;;;;;;;;;5.50;99.90;;;;;;5116104;28;20037;-78
2022/03/07 10:07:45;;;;;;;;;;;5.60;99.90;;;;;;5081398;28;19937;-80
2022/03/07 10:10:11;;;;;;;;;;;5.70;99.90;;;;;;5115744;28;19923;-80
2022/03/07 10:12:50;;;;;;;;;;;5.70;99.90;;;;;;5115788;28;19930;-80
2022/03/07 10:15:17;;;;;;;;;;;5.70;99.90;;;;;;5102773;28;19923;-78
2022/03/07 10:17:50;;;;;;;;;;;5.80;99.90;;;;;;5116203;28;20279;-78
2022/03/07 10:20:19;;;;;;;;;;;5.90;99.90;;;;;;5115745;28;19974;-78
2022/03/07 10:22:45;;;;;;;;;;;5.90;99.90;;;;;;5115258;28;19943;-78
2022/03/07 10:25:11;;;;;;;;;;;6.00;99.90;;;;;;5109128;28;20284;-83
2022/03/07 10:27:39;;;;;;;;;;;6.00;99.90;;;;;;5098642;28;20007;-80
2022/03/07 10:30:11;;;;;;;;;;;6.10;99.90;;;;;;5115539;28;19923;-79
2022/03/07 10:32:37;;;;;;;;;;;6.20;99.90;;;;;;5098879;28;19924;-79
2022/03/07 10:35:02;;;;;;;;;;;6.30;99.90;;;;;;5098556;28;19976;-85
2022/03/07 10:37:32;;;;;;;;;;;6.40;99.90;;;;;;5097708;28;19982;-79
2022/03/07 10:39:58;;;;;;;;;;;6.40;99.90;;;;;;5115583;28;20015;-80
2022/03/07 10:42:23;;;;;;;;;;;6.70;99.90;;;;;;5098105;28;20018;-82
2022/03/07 10:44:49;;;;;;;;;;;6.80;99.90;;;;;;5115206;28;19946;-81
2022/03/07 10:47:16;;;;;;;;;;;6.90;99.90;;;;;;5115417;28;20249;-80
2022/03/07 10:49:52;;;;;;;;;;;7.10;99.90;;;;;;5098471;28;19924;-79
2022/03/07 10:52:18;;;;;;;;;;;7.20;99.90;;;;;;5114602;28;19947;-80
2022/03/07 10:54:44;;;;;;;;;;;7.30;99.90;;;;;;5114167;28;19928;-79
2022/03/07 10:57:10;;;;;;;;;;;7.30;99.90;;;;;;5115138;28;20014;-79
2022/03/07 10:59:37;;;;;;;;;;;7.50;99.90;;;;;;5097994;28;19947;-80
2022/03/07 11:02:04;;;;;;;;;;;7.70;99.90;;;;;;5114919;28;19935;-79
2022/03/07 11:04:30;;;;;;;;;;;7.90;99.90;;;;;;5114014;28;19924;-79
2022/03/07 11:06:56;;;;;;;;;;;8.00;99.90;;;;;;5114597;28;20007;-79
2022/03/07 11:09:21;;;;;;;;;;;8.20;99.90;;;;;;5114617;28;19974;-79
2022/03/07 11:11:48;;;;;;;;;;;8.30;99.90;;;;;;5097848;28;20441;-80
2022/03/07 11:14:15;;;;;;;;;;;8.30;99.90;;;;;;5114320;28;19923;-79
2022/03/07 11:16:41;;;;;;;;;;;8.40;99.90;;;;;;5114946;28;19967;-79
2022/03/07 11:19:07;;;;;;;;;;;8.50;99.90;;;;;;5114219;28;19934;-86
2022/03/07 11:21:32;;;;;;;;;;;8.70;99.90;;;;;;5114605;28;20014;-79
2022/03/07 11:23:58;;;;;;;;;;;8.60;99.90;;;;;;5080914;28;19928;-81
2022/03/07 11:26:26;;;;;;;;;;;8.60;99.90;;;;;;5114211;28;19924;-81
2022/03/07 11:28:52;;;;;;;;;;;8.60;99.90;;;;;;5123913;27;19923;-79
2022/03/07 11:31:18;;;;;;;;;;;8.70;99.90;;;;;;5127444;27;20316;-80
2022/03/07 11:33:48;;;;;;;;;;;8.70;99.90;;;;;;5148729;27;20287;-79
2022/03/07 11:36:18;;;;;;;;;;;8.80;99.90;;;;;;5114054;28;19974;-80
2022/03/07 11:38:55;;;;;;;;;;;8.90;99.90;;;;;;5114700;28;19986;-80
2022/03/07 11:41:25;;;;;;;;;;;8.80;99.90;;;;;;5114422;28;20023;-80
2022/03/07 11:43:53;;;;;;;;;;;8.70;99.90;;;;;;5114489;28;19923;-79
2022/03/07 11:46:23;;;;;;;;;;;8.40;99.90;;;;;;5097346;28;19924;-80
2022/03/07 11:48:49;;;;;;;;;;;8.20;99.90;;;;;;5114018;28;19930;-79
2022/03/07 11:51:15;;;;;;;;;;;7.90;99.90;;;;;;5096963;28;19924;-80
2022/03/07 11:53:47;;;;;;;;;;;7.80;99.90;;;;;;5080008;28;19931;-80
2022/03/07 11:56:17;;;;;;;;;;;7.70;99.90;;;;;;5114033;28;19931;-80
2022/03/07 11:58:49;;;;;;;;;;;7.70;99.90;;;;;;5113206;28;19935;-80
2022/03/07 12:01:14;;;;;;;;;;;7.60;99.90;;;;;;5106794;28;19931;-89
2022/03/07 12:03:40;;;;;;;;;;;7.90;99.90;;;;;;5106238;28;20473;-80
2022/03/07 12:06:09;;;;;;;;;;;8.10;99.90;;;;;;5114976;27;19924;-79
2022/03/07 12:08:42;;;;;;;;;;;8.60;99.90;;;;;;5114418;27;20390;-78
2022/03/07 12:11:09;;;;;;;;;;;8.50;99.90;;;;;;5109556;27;20260;-79
2022/03/07 12:13:44;;;;;;;;;;;8.40;99.90;;;;;;5093352;27;20428;-78
2022/03/07 12:16:12;;;;;;;;;;;8.20;99.90;;;;;;5113722;28;20386;-78
2022/03/07 12:18:37;;;;;;;;;;;8.10;99.90;;;;;;5113960;28;19923;-79
2022/03/07 12:21:03;;;;;;;;;;;8.10;99.90;;;;;;5113630;28;20390;-79
2022/03/07 12:23:30;;;;;;;;;;;8.10;99.90;;;;;;5130464;27;19985;-79
2022/03/07 12:26:00;;;;;;;;;;;8.20;99.90;;;;;;5130862;27;19932;-80
2022/03/07 12:28:31;;;;;;;;;;;8.20;99.90;;;;;;5130478;27;20011;-78
2022/03/07 12:30:57;;;;;;;;;;;8.20;99.90;;;;;;5130791;27;19928;-79
2022/03/07 12:33:23;;;;;;;;;;;8.00;99.90;;;;;;5130375;27;19928;-79
2022/03/07 12:35:57;;;;;;;;;;;7.80;99.90;;;;;;5130093;27;19923;-78
2022/03/07 12:38:23;;;;;;;;;;;7.70;99.90;;;;;;5113022;28;19978;-78
2022/03/07 12:40:49;;;;;;;;;;;8.00;99.90;;;;;;5113106;28;19982;-78
2022/03/07 12:43:15;;;;;;;;;;;8.10;99.90;;;;;;5130248;27;20007;-80
2022/03/07 12:45:44;;;;;;;;;;;8.10;99.90;;;;;;5096405;28;20282;-78
2022/03/07 12:48:10;;;;;;;;;;;8.30;99.90;;;;;;5096442;28;19924;-78
2022/03/07 12:50:36;;;;;;;;;;;8.70;99.90;;;;;;5146848;27;20039;-79
2022/03/07 12:53:01;;;;;;;;;;;8.90;99.90;;;;;;5124128;27;19923;-78
2022/03/07 12:55:27;;;;;;;;;;;8.90;99.90;;;;;;5094973;28;19923;-79
2022/03/07 12:57:56;;;;;;;;;;;8.70;99.90;;;;;;5112627;28;20014;-78
2022/03/07 13:00:23;;;;;;;;;;;8.50;99.90;;;;;;5128793;27;19928;-78
2022/03/07 13:02:53;;;;;;;;;;;8.40;99.90;;;;;;5123473;27;19934;-82
2022/03/07 13:05:23;;;;;;;;;;;8.60;99.90;;;;;;5115213;28;19923;-79
2022/03/07 13:07:52;;;;;;;;;;;9.00;99.90;;;;;;5131216;28;19923;-79
2022/03/07 13:10:19;;;;;;;;;;;9.30;99.90;;;;;;5133307;28;20407;-86
2022/03/07 13:12:44;;;;;;;;;;;9.40;99.90;;;;;;5114762;28;19923;-85
2022/03/07 13:15:10;;;;;;;;;;;9.30;99.90;;;;;;5113323;28;20080;-78
2022/03/07 13:17:36;;;;;;;;;;;9.30;99.90;;;;;;5130186;28;19923;-78
2022/03/07 13:20:02;;;;;;;;;;;9.30;99.90;;;;;;5112880;28;19924;-81
2022/03/07 13:22:29;;;;;;;;;;;9.30;99.90;;;;;;5112063;28;19924;-79
2022/03/07 13:24:56;;;;;;;;;;;9.50;99.90;;;;;;5112782;28;19923;-78
2022/03/07 13:27:22;;;;;;;;;;;9.50;99.90;;;;;;5112573;28;19924;-79
2022/03/07 13:29:48;;;;;;;;;;;9.40;99.90;;;;;;5112832;28;20711;-79
2022/03/07 13:32:18;;;;;;;;;;;9.50;99.90;;;;;;5112976;28;20252;-79
2022/03/07 13:34:54;;;;;;;;;;;9.60;99.90;;;;;;5112064;28;19924;-80
2022/03/07 13:37:24;;;;;;;;;;;9.50;99.90;;;;;;5112873;28;19924;-80
2022/03/07 13:39:57;;;;;;;;;;;9.30;99.90;;;;;;5105411;28;19924;-80
2022/03/07 13:42:23;;;;;;;;;;;9.10;99.90;;;;;;5095486;28;20395;-79
2022/03/07 13:44:55;;;;;;;;;;;9.30;99.90;;;;;;5112723;28;20015;-80
2022/03/07 13:47:22;;;;;;;;;;;9.30;99.90;;;;;;5112640;28;19923;-79
2022/03/07 13:49:49;;;;;;;;;;;9.70;99.90;;;;;;5129244;27;20432;-78
2022/03/07 13:52:15;;;;;;;;;;;10.20;99.90;;;;;;5120117;28;19924;-82
2022/03/07 13:54:41;;;;;;;;;;;11.00;99.90;;;;;;5108157;28;19931;-80
2022/03/07 13:57:07;;;;;;;;;;;11.70;99.90;;;;;;5101502;28;19990;-80
2022/03/07 13:59:33;;;;;;;;;;;12.20;99.90;;;;;;5101552;28;19935;-80
2022/03/07 14:01:58;;;;;;;;;;;12.50;99.90;;;;;;5126318;28;19924;-80
2022/03/07 14:04:25;;;;;;;;;;;13.00;99.90;;;;;;5091734;28;19924;-82
2022/03/07 14:07:01;;;;;;;;;;;13.40;99.90;;;;;;5090467;28;19993;-79
2022/03/07 14:09:27;;;;;;;;;;;13.70;99.90;;;;;;5101239;28;19924;-81
2022/03/07 14:11:58;;;;;;;;;;;14.10;99.90;;;;;;5139900;27;20064;-80
2022/03/07 14:14:24;;;;;;;;;;;14.30;99.90;;;;;;5108654;28;19969;-82
2022/03/07 14:16:50;;;;;;;;;;;14.60;99.70;;;;;;5106853;27;19928;-81
2022/03/07 14:19:17;;;;;;;;;;;14.90;99.90;;;;;;5102723;27;20003;-81
2022/03/07 14:21:43;;;;;;;;;;;15.30;99.90;;;;;;5095361;27;19928;-82